Time;durP1;ratioP1;P1;durP2;ratioP2;P2;SDS_P1;SDS_P2;PMS_P1;PMS_P2;Temp;Humidity;BMP_temperature;BMP_pressure;BME280_temperature;BME280_humidity;BME280_pressure;Samples;Min_cycle;Max_cycle;Signal;HPM_P1;HPM_P2
2022/02/18 00:00:42;;;;;;;;;;;22.40;49.30;;;;;;5155066;27;20030;-47
2022/02/18 00:03:09;;;;;;;;;;;22.40;49.30;;;;;;5156196;27;19929;-45
2022/02/18 00:05:36;;;;;;;;;;;22.40;49.30;;;;;;5156305;27;19930;-45
2022/02/18 00:08:04;;;;;;;;;;;22.40;49.30;;;;;;5155462;27;19924;-46
2022/02/18 00:10:32;;;;;;;;;;;22.40;49.30;;;;;;5156735;27;19923;-46
2022/02/18 00:12:59;;;;;;;;;;;22.40;49.30;;;;;;5156450;27;19987;-47
2022/02/18 00:15:26;;;;;;;;;;;22.40;49.30;;;;;;5155301;27;19927;-48
2022/02/18 00:17:53;;;;;;;;;;;22.40;49.30;;;;;;5156384;27;19930;-47
2022/02/18 00:20:20;;;;;;;;;;;22.40;49.30;;;;;;5137644;27;19977;-44
2022/02/18 00:22:47;;;;;;;;;;;22.40;49.30;;;;;;5155340;27;20010;-44
2022/02/18 00:25:14;;;;;;;;;;;22.40;49.30;;;;;;5155797;27;19927;-45
2022/02/18 00:27:42;;;;;;;;;;;22.40;49.20;;;;;;5156461;27;20018;-47
2022/02/18 00:30:09;;;;;;;;;;;22.40;49.20;;;;;;5154876;27;19923;-45
2022/02/18 00:32:36;;;;;;;;;;;22.40;49.20;;;;;;5155865;27;19975;-45
2022/02/18 00:35:04;;;;;;;;;;;22.40;49.20;;;;;;5156093;27;19966;-46
2022/02/18 00:37:31;;;;;;;;;;;22.40;49.20;;;;;;5155429;27;20341;-44
2022/02/18 00:39:59;;;;;;;;;;;22.40;49.20;;;;;;5155871;27;19923;-43
2022/02/18 00:42:26;;;;;;;;;;;22.40;49.20;;;;;;5155697;27;20436;-43
2022/02/18 00:44:54;;;;;;;;;;;22.40;49.20;;;;;;5154426;27;19999;-43
2022/02/18 00:47:21;;;;;;;;;;;22.40;49.20;;;;;;5155901;27;19927;-43
2022/02/18 00:49:48;;;;;;;;;;;22.40;49.20;;;;;;5137799;27;19923;-46
2022/02/18 00:52:17;;;;;;;;;;;22.30;49.10;;;;;;5155611;27;19923;-42
2022/02/18 00:54:44;;;;;;;;;;;22.30;49.10;;;;;;5154692;27;20374;-42
2022/02/18 00:57:11;;;;;;;;;;;22.30;49.10;;;;;;5155640;27;19927;-44
2022/02/18 00:59:38;;;;;;;;;;;22.30;49.10;;;;;;5136889;27;20375;-46
2022/02/18 01:02:05;;;;;;;;;;;22.30;49.10;;;;;;5155074;27;19926;-45
2022/02/18 01:04:32;;;;;;;;;;;22.30;49.00;;;;;;5155608;27;19923;-46
2022/02/18 01:06:59;;;;;;;;;;;22.30;49.10;;;;;;5155611;27;19976;-46
2022/02/18 01:09:27;;;;;;;;;;;22.30;49.10;;;;;;5154480;27;20014;-45
2022/02/18 01:11:54;;;;;;;;;;;22.30;49.00;;;;;;5155520;27;20271;-45
2022/02/18 01:14:21;;;;;;;;;;;22.30;49.00;;;;;;5155496;27;19923;-45
2022/02/18 01:16:48;;;;;;;;;;;22.30;49.00;;;;;;5154319;27;19922;-46
2022/02/18 01:19:15;;;;;;;;;;;22.30;49.00;;;;;;5155082;27;19923;-45
2022/02/18 01:21:42;;;;;;;;;;;22.30;49.00;;;;;;5137012;27;19923;-44
2022/02/18 01:24:09;;;;;;;;;;;22.30;49.00;;;;;;5154828;27;19988;-44
2022/02/18 01:26:36;;;;;;;;;;;22.30;49.00;;;;;;5155414;27;20319;-45
2022/02/18 01:29:03;;;;;;;;;;;22.30;49.00;;;;;;5155364;27;19949;-48
2022/02/18 01:31:31;;;;;;;;;;;22.30;49.00;;;;;;5135867;27;19930;-45
2022/02/18 01:33:58;;;;;;;;;;;22.30;49.00;;;;;;5155337;27;19923;-43
2022/02/18 01:36:25;;;;;;;;;;;22.30;49.00;;;;;;5155338;27;20343;-45
2022/02/18 01:38:53;;;;;;;;;;;22.30;49.60;;;;;;5158087;27;19977;-46
2022/02/18 01:41:20;;;;;;;;;;;22.30;49.00;;;;;;5159344;27;19968;-44
2022/02/18 01:43:54;;;;;;;;;;;22.30;48.90;;;;;;5159059;27;20443;-44
2022/02/18 01:46:22;;;;;;;;;;;22.30;49.00;;;;;;5157901;27;19930;-44
2022/02/18 01:48:49;;;;;;;;;;;22.30;48.90;;;;;;5159304;27;20335;-46
2022/02/18 01:51:21;;;;;;;;;;;22.20;48.90;;;;;;5159058;27;20331;-42
2022/02/18 01:53:49;;;;;;;;;;;22.30;48.90;;;;;;5158808;27;19923;-44
2022/02/18 01:56:17;;;;;;;;;;;22.30;48.90;;;;;;5159147;27;19954;-44
2022/02/18 01:58:44;;;;;;;;;;;22.30;48.90;;;;;;5158779;27;20382;-44
2022/02/18 02:01:12;;;;;;;;;;;22.20;48.90;;;;;;5157371;27;19924;-44
2022/02/18 02:03:40;;;;;;;;;;;22.30;48.90;;;;;;5158997;27;19923;-47
2022/02/18 02:06:08;;;;;;;;;;;22.20;48.80;;;;;;5158630;27;19977;-44
2022/02/18 02:08:37;;;;;;;;;;;22.20;48.80;;;;;;5158211;27;19923;-50
2022/02/18 02:11:04;;;;;;;;;;;22.20;48.80;;;;;;5158542;27;19931;-42
2022/02/18 02:13:39;;;;;;;;;;;22.20;48.80;;;;;;5158817;27;19927;-48
2022/02/18 02:16:07;;;;;;;;;;;22.20;48.80;;;;;;5157341;27;20370;-45
2022/02/18 02:18:34;;;;;;;;;;;22.20;48.80;;;;;;5158531;27;19967;-45
2022/02/18 02:21:02;;;;;;;;;;;22.20;48.80;;;;;;5158578;27;19991;-46
2022/02/18 02:23:29;;;;;;;;;;;22.20;48.70;;;;;;5158534;27;19995;-46
2022/02/18 02:25:57;;;;;;;;;;;22.20;48.80;;;;;;5157813;27;19923;-45
2022/02/18 02:28:24;;;;;;;;;;;22.20;48.70;;;;;;5158199;27;20404;-45
2022/02/18 02:30:51;;;;;;;;;;;22.20;48.70;;;;;;5157230;27;19923;-43
2022/02/18 02:33:19;;;;;;;;;;;22.20;48.70;;;;;;5158471;27;19976;-46
2022/02/18 02:35:46;;;;;;;;;;;22.20;48.70;;;;;;5158031;27;19923;-47
2022/02/18 02:38:13;;;;;;;;;;;22.20;48.70;;;;;;5158032;27;19966;-44
2022/02/18 02:40:40;;;;;;;;;;;22.20;48.70;;;;;;5157125;27;20429;-47
2022/02/18 02:43:07;;;;;;;;;;;22.20;48.70;;;;;;5158237;27;19958;-45
2022/02/18 02:45:34;;;;;;;;;;;22.20;48.70;;;;;;5157879;27;19973;-45
2022/02/18 02:48:01;;;;;;;;;;;22.20;48.70;;;;;;5156251;27;19927;-50
2022/02/18 02:50:28;;;;;;;;;;;22.20;48.70;;;;;;5157819;27;19958;-44
2022/02/18 02:52:55;;;;;;;;;;;22.20;48.70;;;;;;5157689;27;19952;-44
2022/02/18 02:55:22;;;;;;;;;;;22.20;48.70;;;;;;5157234;27;19931;-45
2022/02/18 02:57:49;;;;;;;;;;;22.20;48.70;;;;;;5157930;27;20402;-44
2022/02/18 03:00:16;;;;;;;;;;;22.20;48.70;;;;;;5157862;27;20359;-44
2022/02/18 03:02:43;;;;;;;;;;;22.20;48.70;;;;;;5156748;27;20008;-45
2022/02/18 03:05:11;;;;;;;;;;;22.20;48.70;;;;;;5157810;27;19962;-43
2022/02/18 03:07:39;;;;;;;;;;;22.20;48.70;;;;;;5157799;27;19930;-45
2022/02/18 03:10:07;;;;;;;;;;;22.20;48.70;;;;;;5156964;27;20033;-44
2022/02/18 03:12:34;;;;;;;;;;;22.20;48.70;;;;;;5157665;27;19934;-44
2022/02/18 03:15:01;;;;;;;;;;;22.20;48.70;;;;;;5157628;27;19923;-44
2022/02/18 03:17:28;;;;;;;;;;;22.20;48.70;;;;;;5156425;27;19923;-43
2022/02/18 03:19:55;;;;;;;;;;;22.20;48.60;;;;;;5157202;27;19923;-48
2022/02/18 03:22:22;;;;;;;;;;;22.20;48.60;;;;;;5157326;27;19983;-45
2022/02/18 03:24:49;;;;;;;;;;;22.20;48.60;;;;;;5156384;27;19992;-45
2022/02/18 03:27:16;;;;;;;;;;;22.20;48.60;;;;;;5157376;27;19930;-45
2022/02/18 03:29:43;;;;;;;;;;;22.20;48.70;;;;;;5157344;27;19934;-44
2022/02/18 03:32:10;;;;;;;;;;;22.20;48.60;;;;;;5155641;27;20006;-43
2022/02/18 03:34:37;;;;;;;;;;;22.20;48.60;;;;;;5157454;27;19930;-43
2022/02/18 03:37:04;;;;;;;;;;;22.20;48.60;;;;;;5157160;27;19923;-43
2022/02/18 03:39:32;;;;;;;;;;;22.20;48.60;;;;;;5156495;27;20419;-45
2022/02/18 03:41:59;;;;;;;;;;;22.20;48.60;;;;;;5135826;27;20272;-46
2022/02/18 03:44:25;;;;;;;;;;;22.20;48.60;;;;;;5136271;27;19924;-48
2022/02/18 03:46:53;;;;;;;;;;;22.20;48.60;;;;;;5121065;27;19931;-44
2022/02/18 03:49:20;;;;;;;;;;;22.20;48.60;;;;;;5156944;27;20289;-48
2022/02/18 03:51:47;;;;;;;;;;;22.20;48.60;;;;;;5156390;27;19952;-46
2022/02/18 03:54:14;;;;;;;;;;;22.20;48.60;;;;;;5156829;27;19973;-43
2022/02/18 03:56:41;;;;;;;;;;;22.20;48.60;;;;;;5156054;27;19966;-44
2022/02/18 03:59:08;;;;;;;;;;;22.20;48.60;;;;;;5156392;27;19966;-46
2022/02/18 04:01:35;;;;;;;;;;;22.10;48.40;;;;;;5155391;27;20027;-46
2022/02/18 04:04:02;;;;;;;;;;;22.20;48.50;;;;;;5135523;27;19924;-42
2022/02/18 04:06:29;;;;;;;;;;;22.20;48.50;;;;;;5135559;27;20364;-45
2022/02/18 04:08:56;;;;;;;;;;;22.20;48.50;;;;;;5136112;27;20329;-43
2022/02/18 04:11:23;;;;;;;;;;;22.10;48.40;;;;;;5148163;27;20267;-43
2022/02/18 04:13:50;;;;;;;;;;;22.10;48.40;;;;;;5156218;27;19923;-45
2022/02/18 04:16:17;;;;;;;;;;;22.10;49.00;;;;;;5156390;27;20339;-44
2022/02/18 04:18:44;;;;;;;;;;;22.10;48.40;;;;;;5155085;27;19966;-44
2022/02/18 04:21:10;;;;;;;;;;;22.10;48.40;;;;;;5155740;27;19974;-44
2022/02/18 04:23:38;;;;;;;;;;;22.10;48.40;;;;;;5155952;27;19966;-46
2022/02/18 04:26:05;;;;;;;;;;;22.10;48.40;;;;;;5155483;27;19968;-43
2022/02/18 04:28:32;;;;;;;;;;;22.10;48.40;;;;;;5155881;27;20390;-46
2022/02/18 04:30:59;;;;;;;;;;;22.10;48.40;;;;;;5156004;27;20019;-44
2022/02/18 04:33:26;;;;;;;;;;;22.10;48.40;;;;;;5154946;27;19975;-44
2022/02/18 04:35:53;;;;;;;;;;;22.10;48.40;;;;;;5156035;27;19923;-43
2022/02/18 04:38:20;;;;;;;;;;;22.10;48.40;;;;;;5155932;27;19923;-48
2022/02/18 04:40:47;;;;;;;;;;;22.10;48.40;;;;;;5155060;27;19930;-43
2022/02/18 04:43:14;;;;;;;;;;;22.10;48.40;;;;;;5155949;27;19966;-46
2022/02/18 04:45:42;;;;;;;;;;;22.10;48.40;;;;;;5155597;27;19958;-46
2022/02/18 04:48:08;;;;;;;;;;;22.10;48.40;;;;;;5154742;27;20351;-43
2022/02/18 04:50:36;;;;;;;;;;;22.10;48.40;;;;;;5156617;27;19970;-45
2022/02/18 04:53:23;;;;;;;;;;;22.10;48.40;;;;;;5155746;27;20382;-45
2022/02/18 04:55:50;;;;;;;;;;;22.10;48.30;;;;;;5154658;27;19962;-46
2022/02/18 04:58:17;;;;;;;;;;;22.10;48.30;;;;;;5155705;27;19930;-44
2022/02/18 05:00:44;;;;;;;;;;;22.10;48.30;;;;;;5155211;27;20320;-46
2022/02/18 05:03:11;;;;;;;;;;;22.10;48.30;;;;;;5154860;27;20294;-48
2022/02/18 05:05:38;;;;;;;;;;;22.10;48.30;;;;;;5137899;27;19966;-46
2022/02/18 05:08:05;;;;;;;;;;;22.10;48.30;;;;;;5155315;27;20382;-42
2022/02/18 05:10:32;;;;;;;;;;;22.10;48.30;;;;;;5155567;27;19930;-44
2022/02/18 05:12:59;;;;;;;;;;;22.10;48.30;;;;;;5155350;27;19924;-43
2022/02/18 05:15:26;;;;;;;;;;;22.10;48.30;;;;;;5155532;27;20022;-46
2022/02/18 05:17:53;;;;;;;;;;;22.10;48.30;;;;;;5136283;27;19993;-45
2022/02/18 05:20:20;;;;;;;;;;;22.10;48.30;;;;;;5155485;27;20417;-44
2022/02/18 05:22:47;;;;;;;;;;;22.10;48.20;;;;;;5136693;27;19923;-43
2022/02/18 05:25:14;;;;;;;;;;;22.10;48.20;;;;;;5155426;27;19985;-45
2022/02/18 05:27:41;;;;;;;;;;;22.10;48.20;;;;;;5136163;27;20035;-42
2022/02/18 05:30:08;;;;;;;;;;;22.10;48.20;;;;;;5155103;27;19965;-44
2022/02/18 05:32:36;;;;;;;;;;;22.10;48.20;;;;;;5154394;27;19923;-47
2022/02/18 05:35:03;;;;;;;;;;;22.10;48.20;;;;;;5134411;27;19923;-44
2022/02/18 05:37:30;;;;;;;;;;;22.10;48.20;;;;;;5116385;28;20298;-45
2022/02/18 05:39:57;;;;;;;;;;;22.10;48.20;;;;;;5134201;28;19981;-46
2022/02/18 05:42:24;;;;;;;;;;;22.10;48.20;;;;;;5145781;27;20015;-44
2022/02/18 05:44:51;;;;;;;;;;;22.10;48.20;;;;;;5155196;27;19930;-44
2022/02/18 05:47:18;;;;;;;;;;;22.10;48.20;;;;;;5154904;27;19923;-45
2022/02/18 05:49:45;;;;;;;;;;;22.10;48.10;;;;;;5153986;27;19962;-45
2022/02/18 05:52:12;;;;;;;;;;;22.10;48.10;;;;;;5154657;27;19930;-44
2022/02/18 05:54:39;;;;;;;;;;;22.10;48.10;;;;;;5154846;27;19923;-44
2022/02/18 05:57:06;;;;;;;;;;;22.10;48.10;;;;;;5154466;27;20335;-44
2022/02/18 05:59:33;;;;;;;;;;;22.10;48.10;;;;;;5155096;27;19923;-43
2022/02/18 06:02:00;;;;;;;;;;;22.10;48.10;;;;;;5154563;27;20014;-44
2022/02/18 06:04:27;;;;;;;;;;;22.10;48.10;;;;;;5153650;27;19923;-44
2022/02/18 06:06:54;;;;;;;;;;;22.10;48.10;;;;;;5154997;27;19974;-44
2022/02/18 06:09:21;;;;;;;;;;;22.10;48.10;;;;;;5136466;27;20394;-45
2022/02/18 06:11:48;;;;;;;;;;;22.10;48.10;;;;;;5154205;27;19998;-43
2022/02/18 06:14:15;;;;;;;;;;;22.10;48.10;;;;;;5154697;27;20019;-47
2022/02/18 06:16:42;;;;;;;;;;;22.10;48.10;;;;;;5154661;27;20449;-43
2022/02/18 06:19:09;;;;;;;;;;;22.10;48.10;;;;;;5153158;27;19966;-47
2022/02/18 06:21:37;;;;;;;;;;;22.10;48.10;;;;;;5136383;27;19970;-48
2022/02/18 06:24:04;;;;;;;;;;;22.10;48.10;;;;;;5156533;27;20049;-45
2022/02/18 06:26:31;;;;;;;;;;;22.10;48.10;;;;;;5158184;27;20371;-46
2022/02/18 06:28:58;;;;;;;;;;;22.10;48.00;;;;;;5157699;27;20320;-46
2022/02/18 06:31:25;;;;;;;;;;;22.10;48.00;;;;;;5139886;27;19923;-44
2022/02/18 06:33:52;;;;;;;;;;;22.10;48.00;;;;;;5157056;27;19981;-44
2022/02/18 06:36:19;;;;;;;;;;;22.10;48.00;;;;;;5158397;27;20323;-46
2022/02/18 06:38:46;;;;;;;;;;;22.10;48.00;;;;;;5157907;27;19923;-45
2022/02/18 06:41:14;;;;;;;;;;;22.10;48.00;;;;;;5158137;27;20010;-47
2022/02/18 06:43:41;;;;;;;;;;;22.10;48.00;;;;;;5157378;27;20025;-44
2022/02/18 06:46:08;;;;;;;;;;;22.10;48.00;;;;;;5158137;27;19958;-46
2022/02/18 06:48:35;;;;;;;;;;;22.10;47.90;;;;;;5156663;27;19927;-45
2022/02/18 06:51:02;;;;;;;;;;;22.10;47.90;;;;;;5158117;27;19923;-51
2022/02/18 06:53:29;;;;;;;;;;;22.10;47.90;;;;;;5139624;27;19958;-46
2022/02/18 06:55:56;;;;;;;;;;;22.10;47.90;;;;;;5157947;27;19987;-51
2022/02/18 06:58:23;;;;;;;;;;;22.10;47.90;;;;;;5157178;27;19927;-48
2022/02/18 07:00:51;;;;;;;;;;;22.10;47.90;;;;;;5157401;27;19923;-48
2022/02/18 07:03:20;;;;;;;;;;;22.10;47.90;;;;;;5157803;27;20010;-46
2022/02/18 07:05:48;;;;;;;;;;;22.10;47.90;;;;;;5156270;27;20416;-47
2022/02/18 07:08:16;;;;;;;;;;;22.10;47.80;;;;;;5157635;27;19930;-47
2022/02/18 07:10:43;;;;;;;;;;;22.10;47.80;;;;;;5157686;27;19923;-51
2022/02/18 07:13:10;;;;;;;;;;;22.10;47.80;;;;;;5156855;27;19930;-48
2022/02/18 07:15:37;;;;;;;;;;;22.10;47.70;;;;;;5157201;27;19923;-46
2022/02/18 07:18:05;;;;;;;;;;;22.10;47.70;;;;;;5156973;27;20023;-50
2022/02/18 07:20:33;;;;;;;;;;;22.10;47.70;;;;;;5155892;27;19923;-44
2022/02/18 07:23:00;;;;;;;;;;;22.20;47.80;;;;;;5157493;27;19929;-46
2022/02/18 07:25:27;;;;;;;;;;;22.20;47.80;;;;;;5157384;27;19923;-51
2022/02/18 07:27:54;;;;;;;;;;;22.20;47.70;;;;;;5156271;27;19926;-50
2022/02/18 07:30:21;;;;;;;;;;;22.20;47.70;;;;;;5156832;27;19930;-49
2022/02/18 07:32:49;;;;;;;;;;;22.20;47.70;;;;;;5157181;27;19946;-48
2022/02/18 07:35:16;;;;;;;;;;;22.20;47.60;;;;;;5154759;27;19936;-48
2022/02/18 07:37:44;;;;;;;;;;;22.20;47.60;;;;;;5156870;27;19931;-46
2022/02/18 07:40:12;;;;;;;;;;;22.20;47.60;;;;;;5156860;27;19975;-44
2022/02/18 07:42:39;;;;;;;;;;;22.20;47.60;;;;;;5154959;27;19927;-46
2022/02/18 07:45:07;;;;;;;;;;;22.20;47.60;;;;;;5136236;27;19980;-45
2022/02/18 07:47:35;;;;;;;;;;;22.20;47.60;;;;;;5136199;27;19927;-43
2022/02/18 07:50:03;;;;;;;;;;;22.20;47.50;;;;;;5144713;27;19923;-46
2022/02/18 07:52:30;;;;;;;;;;;22.20;47.50;;;;;;5156351;27;19923;-47
2022/02/18 07:54:58;;;;;;;;;;;22.20;47.50;;;;;;5156531;27;19931;-44
2022/02/18 07:57:25;;;;;;;;;;;22.20;47.40;;;;;;5156763;27;19927;-47
2022/02/18 07:59:53;;;;;;;;;;;22.20;47.40;;;;;;5156018;27;20324;-44
2022/02/18 08:02:20;;;;;;;;;;;22.20;47.40;;;;;;5156504;27;19923;-44
2022/02/18 08:04:47;;;;;;;;;;;22.30;47.50;;;;;;5155268;27;19930;-43
2022/02/18 08:07:14;;;;;;;;;;;22.30;47.40;;;;;;5156244;27;19927;-47
2022/02/18 08:09:41;;;;;;;;;;;22.30;47.40;;;;;;5156220;27;19923;-46
2022/02/18 08:12:08;;;;;;;;;;;22.30;47.40;;;;;;5156996;27;19927;-44
2022/02/18 08:14:35;;;;;;;;;;;22.30;47.40;;;;;;5155649;27;20343;-44
2022/02/18 08:17:03;;;;;;;;;;;22.30;47.30;;;;;;5138020;27;19987;-44
2022/02/18 08:19:30;;;;;;;;;;;22.30;47.30;;;;;;5154653;27;19930;-47
2022/02/18 08:21:57;;;;;;;;;;;22.30;47.20;;;;;;5137809;27;19967;-43
2022/02/18 08:24:25;;;;;;;;;;;22.30;47.30;;;;;;5156118;27;20345;-45
2022/02/18 08:26:53;;;;;;;;;;;22.40;47.30;;;;;;5137865;27;19958;-47
2022/02/18 08:29:24;;;;;;;;;;;22.40;47.30;;;;;;5155271;27;19979;-43
2022/02/18 08:31:52;;;;;;;;;;;22.40;47.20;;;;;;5155667;27;19923;-47
2022/02/18 08:34:19;;;;;;;;;;;22.40;47.20;;;;;;5156068;27;19927;-48
2022/02/18 08:36:46;;;;;;;;;;;22.40;47.20;;;;;;5154808;27;19923;-47
2022/02/18 08:39:13;;;;;;;;;;;22.40;47.20;;;;;;5155704;27;19923;-43
2022/02/18 08:41:41;;;;;;;;;;;22.40;47.20;;;;;;5155818;27;19983;-44
2022/02/18 08:44:08;;;;;;;;;;;22.40;47.10;;;;;;5154818;27;19975;-47
2022/02/18 08:46:36;;;;;;;;;;;22.40;47.10;;;;;;5155262;27;20032;-48
2022/02/18 08:49:08;;;;;;;;;;;22.40;47.10;;;;;;5155863;27;19923;-43
2022/02/18 08:51:35;;;;;;;;;;;22.40;47.10;;;;;;5154521;27;19927;-52
2022/02/18 08:54:02;;;;;;;;;;;22.40;47.10;;;;;;5155753;27;19927;-45
2022/02/18 08:56:30;;;;;;;;;;;22.40;47.00;;;;;;5155702;27;19931;-49
2022/02/18 08:58:57;;;;;;;;;;;22.40;47.00;;;;;;5155058;27;19927;-46
2022/02/18 09:01:26;;;;;;;;;;;22.40;47.00;;;;;;5155534;27;19946;-48
2022/02/18 09:03:53;;;;;;;;;;;22.40;47.00;;;;;;5155566;27;19923;-50
2022/02/18 09:06:20;;;;;;;;;;;22.50;47.00;;;;;;5154215;27;19944;-51
2022/02/18 09:08:48;;;;;;;;;;;22.50;46.90;;;;;;5155279;27;19930;-52
2022/02/18 09:11:15;;;;;;;;;;;22.50;46.90;;;;;;5155263;27;20398;-44
2022/02/18 09:13:42;;;;;;;;;;;22.50;46.80;;;;;;5154770;27;19953;-46
2022/02/18 09:16:09;;;;;;;;;;;22.50;46.80;;;;;;5155176;27;19930;-52
2022/02/18 09:18:36;;;;;;;;;;;22.50;46.80;;;;;;5155263;27;20279;-47
2022/02/18 09:21:03;;;;;;;;;;;22.50;46.70;;;;;;5154314;27;19975;-47
2022/02/18 09:23:50;;;;;;;;;;;22.50;46.70;;;;;;5155297;27;19930;-48
2022/02/18 09:26:19;;;;;;;;;;;22.60;46.70;;;;;;5154891;27;19945;-45
2022/02/18 09:28:46;;;;;;;;;;;22.60;46.70;;;;;;5154560;27;19923;-50
2022/02/18 09:31:13;;;;;;;;;;;22.60;46.60;;;;;;5155053;27;19927;-45
2022/02/18 09:33:40;;;;;;;;;;;22.60;46.60;;;;;;5155193;27;19951;-47
2022/02/18 09:36:07;;;;;;;;;;;22.60;46.60;;;;;;5153599;27;20042;-46
2022/02/18 09:38:35;;;;;;;;;;;22.60;46.50;;;;;;5155234;27;19927;-47
2022/02/18 09:41:08;;;;;;;;;;;22.60;46.50;;;;;;5154853;27;19934;-47
2022/02/18 09:43:36;;;;;;;;;;;22.60;46.50;;;;;;5155086;27;19927;-51
2022/02/18 09:46:03;;;;;;;;;;;22.60;46.50;;;;;;5153926;27;19923;-46
2022/02/18 09:48:32;;;;;;;;;;;22.60;46.50;;;;;;5154744;27;19923;-47
2022/02/18 09:50:59;;;;;;;;;;;22.60;46.40;;;;;;5153859;27;20267;-45
2022/02/18 09:53:26;;;;;;;;;;;22.70;46.50;;;;;;5154545;27;19923;-45
2022/02/18 09:55:55;;;;;;;;;;;22.70;46.50;;;;;;5155049;27;19923;-46
2022/02/18 09:58:24;;;;;;;;;;;22.70;46.50;;;;;;5156356;27;19923;-45
2022/02/18 10:00:51;;;;;;;;;;;22.70;46.50;;;;;;5151181;27;19927;-46
2022/02/18 10:03:19;;;;;;;;;;;22.70;46.40;;;;;;5158414;27;19923;-43
2022/02/18 10:05:46;;;;;;;;;;;22.70;46.40;;;;;;5157153;27;20006;-42
2022/02/18 10:08:18;;;;;;;;;;;22.70;46.40;;;;;;5158660;27;20371;-43
2022/02/18 10:11:05;;;;;;;;;;;22.70;46.40;;;;;;5158725;27;20423;-47
2022/02/18 10:13:32;;;;;;;;;;;22.70;46.30;;;;;;5146469;27;19923;-43
2022/02/18 10:16:10;;;;;;;;;;;22.70;46.30;;;;;;5152876;27;19927;-45
2022/02/18 10:18:55;;;;;;;;;;;22.60;46.30;;;;;;5158588;27;19927;-43
2022/02/18 10:21:24;;;;;;;;;;;22.70;46.30;;;;;;5157114;27;19923;-44
2022/02/18 10:24:04;;;;;;;;;;;22.60;46.30;;;;;;5140001;27;20034;-45
2022/02/18 10:26:38;;;;;;;;;;;22.70;46.30;;;;;;5158652;27;19954;-45
2022/02/18 10:29:08;;;;;;;;;;;22.70;46.30;;;;;;5157586;27;20374;-45
2022/02/18 10:31:36;;;;;;;;;;;22.70;46.30;;;;;;5157742;27;19923;-46
2022/02/18 10:34:04;;;;;;;;;;;22.70;46.30;;;;;;5158106;27;19923;-43
2022/02/18 10:36:49;;;;;;;;;;;22.70;46.30;;;;;;5151188;27;19923;-45
2022/02/18 10:39:22;;;;;;;;;;;22.70;46.30;;;;;;5158102;27;19934;-42
2022/02/18 10:41:50;;;;;;;;;;;22.70;46.30;;;;;;5158210;27;19963;-46
2022/02/18 10:44:17;;;;;;;;;;;22.70;46.30;;;;;;5139527;27;20018;-48
2022/02/18 10:46:55;;;;;;;;;;;22.70;46.30;;;;;;5156925;27;19930;-43
2022/02/18 10:49:36;;;;;;;;;;;22.70;46.30;;;;;;5158173;27;19923;-43
2022/02/18 10:52:13;;;;;;;;;;;22.70;46.30;;;;;;5156733;27;19991;-43
2022/02/18 10:54:40;;;;;;;;;;;22.70;46.40;;;;;;5158047;27;19923;-42
2022/02/18 10:57:14;;;;;;;;;;;22.70;46.30;;;;;;5158006;27;20035;-47
2022/02/18 10:59:43;;;;;;;;;;;22.70;46.30;;;;;;5157545;27;19927;-43
2022/02/18 11:02:10;;;;;;;;;;;22.70;46.40;;;;;;5157450;27;19988;-45
2022/02/18 11:04:37;;;;;;;;;;;22.70;46.30;;;;;;5157397;27;20461;-44
2022/02/18 11:07:11;;;;;;;;;;;22.70;46.30;;;;;;5156590;27;19923;-44
2022/02/18 11:09:40;;;;;;;;;;;22.70;46.30;;;;;;5157186;27;19923;-44
2022/02/18 11:12:07;;;;;;;;;;;22.70;46.30;;;;;;5157343;27;20017;-44
2022/02/18 11:14:41;;;;;;;;;;;22.70;46.30;;;;;;5157384;27;20011;-49
2022/02/18 11:17:09;;;;;;;;;;;22.70;46.30;;;;;;5156824;27;19930;-44
2022/02/18 11:19:36;;;;;;;;;;;22.70;46.30;;;;;;5157300;27;19931;-50
2022/02/18 11:22:14;;;;;;;;;;;22.70;46.30;;;;;;5155841;27;20091;-44
2022/02/18 11:24:43;;;;;;;;;;;22.70;46.30;;;;;;5157518;27;20359;-46
2022/02/18 11:27:10;;;;;;;;;;;22.70;46.30;;;;;;5157358;27;19923;-45
2022/02/18 11:29:38;;;;;;;;;;;22.70;46.20;;;;;;5157293;27;19927;-42
2022/02/18 11:32:10;;;;;;;;;;;22.70;46.20;;;;;;5156362;27;19930;-43
2022/02/18 11:34:58;;;;;;;;;;;22.70;46.20;;;;;;5157248;27;19923;-43
2022/02/18 11:37:45;;;;;;;;;;;22.70;46.10;;;;;;5156036;27;19950;-46
2022/02/18 11:40:27;;;;;;;;;;;22.70;46.10;;;;;;5156836;27;19976;-43
2022/02/18 11:43:06;;;;;;;;;;;22.70;46.10;;;;;;5138427;27;19923;-43
2022/02/18 11:45:40;;;;;;;;;;;22.70;46.10;;;;;;5156375;27;20225;-43
2022/02/18 11:48:07;;;;;;;;;;;22.70;46.10;;;;;;5157054;27;20294;-43
2022/02/18 11:50:34;;;;;;;;;;;22.70;46.10;;;;;;5156889;27;19927;-43
2022/02/18 11:53:01;;;;;;;;;;;22.70;46.10;;;;;;5155280;27;19927;-46
2022/02/18 11:55:34;;;;;;;;;;;22.70;46.10;;;;;;5151983;27;20459;-46
2022/02/18 11:58:03;;;;;;;;;;;22.70;46.10;;;;;;5146537;27;19928;-44
2022/02/18 12:00:38;;;;;;;;;;;22.70;46.20;;;;;;5145690;27;19930;-47
2022/02/18 12:03:13;;;;;;;;;;;22.70;46.10;;;;;;5156589;27;19927;-44
2022/02/18 12:05:58;;;;;;;;;;;22.70;46.10;;;;;;5156698;27;20341;-44
2022/02/18 12:08:29;;;;;;;;;;;22.70;46.20;;;;;;5155066;27;19971;-45
2022/02/18 12:10:56;;;;;;;;;;;22.70;46.20;;;;;;5156277;27;19927;-44
2022/02/18 12:13:23;;;;;;;;;;;22.70;46.20;;;;;;5156539;27;19946;-44
2022/02/18 12:15:58;;;;;;;;;;;22.70;46.20;;;;;;5155749;27;20324;-46
2022/02/18 12:18:25;;;;;;;;;;;22.70;46.20;;;;;;5134211;27;19923;-46
2022/02/18 12:21:07;;;;;;;;;;;22.70;46.20;;;;;;5134738;27;20336;-43
2022/02/18 12:23:39;;;;;;;;;;;22.70;46.10;;;;;;5134361;27;19974;-45
2022/02/18 12:26:19;;;;;;;;;;;22.70;46.10;;;;;;5135624;27;19959;-46
2022/02/18 12:28:46;;;;;;;;;;;22.70;46.20;;;;;;5135256;27;19927;-46
2022/02/18 12:31:13;;;;;;;;;;;22.70;46.10;;;;;;5134354;27;19927;-44
2022/02/18 12:33:41;;;;;;;;;;;22.60;46.10;;;;;;5134313;27;19924;-49
2022/02/18 12:36:09;;;;;;;;;;;22.70;46.20;;;;;;5135953;27;20336;-43
2022/02/18 12:38:40;;;;;;;;;;;22.70;46.30;;;;;;5134416;27;20316;-47
2022/02/18 12:41:11;;;;;;;;;;;22.70;46.30;;;;;;5135089;27;19976;-43
2022/02/18 12:43:41;;;;;;;;;;;22.60;46.20;;;;;;5134943;27;20394;-46
2022/02/18 12:46:08;;;;;;;;;;;22.70;46.30;;;;;;5134524;27;19923;-48
2022/02/18 12:48:40;;;;;;;;;;;22.60;46.20;;;;;;5134920;27;20371;-46
2022/02/18 12:51:22;;;;;;;;;;;22.60;46.20;;;;;;5134714;27;19927;-43
2022/02/18 12:53:51;;;;;;;;;;;22.70;46.30;;;;;;5134204;27;19928;-47
2022/02/18 12:56:22;;;;;;;;;;;22.70;46.30;;;;;;5135673;27;19923;-44
2022/02/18 12:58:51;;;;;;;;;;;22.70;46.20;;;;;;5135037;27;19924;-46
2022/02/18 13:01:20;;;;;;;;;;;22.70;46.20;;;;;;5134300;27;19927;-46
2022/02/18 13:03:47;;;;;;;;;;;22.70;46.20;;;;;;5134956;27;19981;-45
2022/02/18 13:06:14;;;;;;;;;;;22.70;46.10;;;;;;5134702;27;19930;-47
2022/02/18 13:08:41;;;;;;;;;;;22.70;46.10;;;;;;5134010;27;19924;-46
2022/02/18 13:11:10;;;;;;;;;;;22.70;46.10;;;;;;5135239;27;19923;-48
2022/02/18 13:13:37;;;;;;;;;;;22.70;46.10;;;;;;5133732;27;19931;-44
2022/02/18 13:16:04;;;;;;;;;;;22.70;46.10;;;;;;5135452;27;19967;-46
2022/02/18 13:18:31;;;;;;;;;;;22.70;46.10;;;;;;5132494;28;20019;-46
2022/02/18 13:20:58;;;;;;;;;;;22.70;46.20;;;;;;5134822;27;19946;-46
2022/02/18 13:23:29;;;;;;;;;;;22.60;46.20;;;;;;5133675;27;20015;-44
2022/02/18 13:25:58;;;;;;;;;;;22.60;46.20;;;;;;5135041;27;19950;-45
2022/02/18 13:28:26;;;;;;;;;;;22.60;46.40;;;;;;5134826;27;19962;-45
2022/02/18 13:30:54;;;;;;;;;;;22.60;46.20;;;;;;5134585;27;20360;-44
2022/02/18 13:33:21;;;;;;;;;;;22.60;46.20;;;;;;5136602;27;19924;-46
2022/02/18 13:35:51;;;;;;;;;;;22.60;46.30;;;;;;5139167;27;19924;-48
2022/02/18 13:38:19;;;;;;;;;;;22.60;46.30;;;;;;5137864;27;19930;-46
2022/02/18 13:40:47;;;;;;;;;;;22.50;46.30;;;;;;5138805;27;19947;-47
2022/02/18 13:43:14;;;;;;;;;;;22.60;46.40;;;;;;5138457;27;19923;-45
2022/02/18 13:45:42;;;;;;;;;;;22.60;46.40;;;;;;5138602;27;19924;-45
2022/02/18 13:48:10;;;;;;;;;;;22.50;46.30;;;;;;5137909;27;19976;-47
2022/02/18 13:50:42;;;;;;;;;;;22.50;46.30;;;;;;5138671;27;20006;-46
2022/02/18 13:53:11;;;;;;;;;;;22.50;46.30;;;;;;5137256;27;19977;-45
2022/02/18 13:55:38;;;;;;;;;;;22.50;46.40;;;;;;5138193;27;19924;-45
2022/02/18 13:58:19;;;;;;;;;;;22.50;46.50;;;;;;5138508;27;19927;-48
2022/02/18 14:00:47;;;;;;;;;;;22.50;47.10;;;;;;5138150;27;20391;-44
2022/02/18 14:03:17;;;;;;;;;;;22.50;46.90;;;;;;5137459;27;19972;-44
2022/02/18 14:05:45;;;;;;;;;;;22.50;46.60;;;;;;5138363;27;19976;-45
2022/02/18 14:08:17;;;;;;;;;;;22.50;46.60;;;;;;5136799;27;20026;-42
2022/02/18 14:10:48;;;;;;;;;;;22.50;46.70;;;;;;5138563;27;20093;-44
2022/02/18 14:13:29;;;;;;;;;;;22.50;46.80;;;;;;5137933;27;19923;-43
2022/02/18 14:16:02;;;;;;;;;;;22.50;46.80;;;;;;5137837;27;19927;-44
2022/02/18 14:18:29;;;;;;;;;;;22.50;46.80;;;;;;5143379;27;20362;-42
2022/02/18 14:21:03;;;;;;;;;;;22.50;46.90;;;;;;5158753;27;19958;-45
2022/02/18 14:23:34;;;;;;;;;;;22.50;47.00;;;;;;5157155;27;20018;-42